<?xml version="1.0" encoding="utf-8"?>
<gpx xmlns:xsi="http://www.w3.org/2001/XMLSchema-instance" xmlns:xsd="http://www.w3.org/2001/XMLSchema" version="1.1" creator="Shapelink.com" xmlns="http://www.topografix.com/GPX/1/1" xmlns:gpxtpx="http://www.garmin.com/xmlschemas/TrackPointExtension/v1">
  <metadata>
    <name>Ejecutar 6.11 km, 2020-03-20</name>
    <desc></desc>
    <author><name>Per Rooth</name></author> 
    <time>2020-03-20T17:26:57Z</time>
  </metadata>
  <trk>
    <name>Ejecutar 6.11 km, 2020-03-20</name>
    <trkseg>
      <trkpt lat="56.873333494545" lon="14.792911549944">
        <ele>175.8</ele>
        <time>2020-03-20T17:26:57Z</time>
      </trkpt>
      <trkpt lat="56.873284544249" lon="14.792887661529">
        <ele>177.2</ele>
        <time>2020-03-20T17:26:59Z</time>
      </trkpt>
      <trkpt lat="56.873239449627" lon="14.792859749802">
        <ele>176.2</ele>
        <time>2020-03-20T17:27:01Z</time>
      </trkpt>
      <trkpt lat="56.873051192153" lon="14.792766291617">
        <ele>176.2</ele>
        <time>2020-03-20T17:27:09Z</time>
      </trkpt>
      <trkpt lat="56.872870226932" lon="14.792771488395">
        <ele>176</ele>
        <time>2020-03-20T17:27:17Z</time>
      </trkpt>
      <trkpt lat="56.872687836788" lon="14.79289847418">
        <ele>175.8</ele>
        <time>2020-03-20T17:27:25Z</time>
      </trkpt>
      <trkpt lat="56.872663445459" lon="14.792830077876">
        <ele>175.8</ele>
        <time>2020-03-20T17:27:27Z</time>
      </trkpt>
      <trkpt lat="56.872475187985" lon="14.792716335493">
        <ele>175.8</ele>
        <time>2020-03-20T17:27:35Z</time>
      </trkpt>
      <trkpt lat="56.872294222764" lon="14.792656404908">
        <ele>176.6</ele>
        <time>2020-03-20T17:27:42Z</time>
      </trkpt>
      <trkpt lat="56.872139744347" lon="14.792720861719">
        <ele>176</ele>
        <time>2020-03-20T17:27:48Z</time>
      </trkpt>
      <trkpt lat="56.871959701135" lon="14.792809793678">
        <ele>175.8</ele>
        <time>2020-03-20T17:27:55Z</time>
      </trkpt>
      <trkpt lat="56.871779825561" lon="14.792912974867">
        <ele>175.4</ele>
        <time>2020-03-20T17:28:02Z</time>
      </trkpt>
      <trkpt lat="56.871596261951" lon="14.792981874085">
        <ele>175.2</ele>
        <time>2020-03-20T17:28:09Z</time>
      </trkpt>
      <trkpt lat="56.87140691483" lon="14.792964858828">
        <ele>175.6</ele>
        <time>2020-03-20T17:28:16Z</time>
      </trkpt>
      <trkpt lat="56.87131387574" lon="14.792916998179">
        <ele>175.2</ele>
        <time>2020-03-20T17:28:20Z</time>
      </trkpt>
      <trkpt lat="56.871125534447" lon="14.792831670437">
        <ele>175</ele>
        <time>2020-03-20T17:28:27Z</time>
      </trkpt>
      <trkpt lat="56.870968290003" lon="14.792754556957">
        <ele>174.6</ele>
        <time>2020-03-20T17:28:33Z</time>
      </trkpt>
      <trkpt lat="56.870863516253" lon="14.792699990788">
        <ele>174.2</ele>
        <time>2020-03-20T17:28:37Z</time>
      </trkpt>
      <trkpt lat="56.870682634851" lon="14.792608376621">
        <ele>173.8</ele>
        <time>2020-03-20T17:28:44Z</time>
      </trkpt>
      <trkpt lat="56.870580124214" lon="14.79255565447">
        <ele>173</ele>
        <time>2020-03-20T17:28:48Z</time>
      </trkpt>
      <trkpt lat="56.870396392966" lon="14.792476529334">
        <ele>172.2</ele>
        <time>2020-03-20T17:28:55Z</time>
      </trkpt>
      <trkpt lat="56.870265970602" lon="14.792391620687">
        <ele>171.8</ele>
        <time>2020-03-20T17:29:00Z</time>
      </trkpt>
      <trkpt lat="56.870111156909" lon="14.792336970699">
        <ele>170.8</ele>
        <time>2020-03-20T17:29:06Z</time>
      </trkpt>
      <trkpt lat="56.870028176099" lon="14.792462028647">
        <ele>170.8</ele>
        <time>2020-03-20T17:29:10Z</time>
      </trkpt>
      <trkpt lat="56.869932287163" lon="14.792740643003">
        <ele>170.6</ele>
        <time>2020-03-20T17:29:16Z</time>
      </trkpt>
      <trkpt lat="56.86983111763" lon="14.793050354208">
        <ele>170.4</ele>
        <time>2020-03-20T17:29:23Z</time>
      </trkpt>
      <trkpt lat="56.869748891191" lon="14.793391078443">
        <ele>170</ele>
        <time>2020-03-20T17:29:30Z</time>
      </trkpt>
      <trkpt lat="56.869647637839" lon="14.793705315874">
        <ele>169.8</ele>
        <time>2020-03-20T17:29:37Z</time>
      </trkpt>
      <trkpt lat="56.869618552646" lon="14.793707662806">
        <ele>169.8</ele>
        <time>2020-03-20T17:29:38Z</time>
      </trkpt>
      <trkpt lat="56.869455943786" lon="14.793510604337">
        <ele>169.4</ele>
        <time>2020-03-20T17:29:44Z</time>
      </trkpt>
      <trkpt lat="56.869403808368" lon="14.793444052051">
        <ele>168.6</ele>
        <time>2020-03-20T17:29:46Z</time>
      </trkpt>
      <trkpt lat="56.869242205336" lon="14.793268367427">
        <ele>168.2</ele>
        <time>2020-03-20T17:29:52Z</time>
      </trkpt>
      <trkpt lat="56.869133156817" lon="14.793239533691">
        <ele>167.6</ele>
        <time>2020-03-20T17:29:56Z</time>
      </trkpt>
      <trkpt lat="56.869065431065" lon="14.793571121655">
        <ele>166.8</ele>
        <time>2020-03-20T17:30:03Z</time>
      </trkpt>
      <trkpt lat="56.869042799935" lon="14.793721157665">
        <ele>166.6</ele>
        <time>2020-03-20T17:30:06Z</time>
      </trkpt>
      <trkpt lat="56.868996615666" lon="14.794086440867">
        <ele>166.8</ele>
        <time>2020-03-20T17:30:13Z</time>
      </trkpt>
      <trkpt lat="56.868931488303" lon="14.794445521463">
        <ele>167.2</ele>
        <time>2020-03-20T17:30:20Z</time>
      </trkpt>
      <trkpt lat="56.868876503039" lon="14.794696224092">
        <ele>166.6</ele>
        <time>2020-03-20T17:30:25Z</time>
      </trkpt>
      <trkpt lat="56.868790504745" lon="14.79500736022">
        <ele>166.4</ele>
        <time>2020-03-20T17:30:32Z</time>
      </trkpt>
      <trkpt lat="56.868781200836" lon="14.795049772634">
        <ele>166.6</ele>
        <time>2020-03-20T17:30:33Z</time>
      </trkpt>
      <trkpt lat="56.868706685745" lon="14.795354035604">
        <ele>166.2</ele>
        <time>2020-03-20T17:30:40Z</time>
      </trkpt>
      <trkpt lat="56.868633763215" lon="14.79568964688">
        <ele>166.4</ele>
        <time>2020-03-20T17:30:48Z</time>
      </trkpt>
      <trkpt lat="56.868566121282" lon="14.796021067206">
        <ele>166.4</ele>
        <time>2020-03-20T17:30:55Z</time>
      </trkpt>
      <trkpt lat="56.868487331422" lon="14.796382746191">
        <ele>167</ele>
        <time>2020-03-20T17:31:02Z</time>
      </trkpt>
      <trkpt lat="56.868476518771" lon="14.796435552161">
        <ele>167.2</ele>
        <time>2020-03-20T17:31:03Z</time>
      </trkpt>
      <trkpt lat="56.868412481055" lon="14.796761943347">
        <ele>166.4</ele>
        <time>2020-03-20T17:31:09Z</time>
      </trkpt>
      <trkpt lat="56.868345342036" lon="14.797105014514">
        <ele>167</ele>
        <time>2020-03-20T17:31:16Z</time>
      </trkpt>
      <trkpt lat="56.86827208423" lon="14.797432746804">
        <ele>166.2</ele>
        <time>2020-03-20T17:31:23Z</time>
      </trkpt>
      <trkpt lat="56.868227492522" lon="14.79779853292">
        <ele>165.8</ele>
        <time>2020-03-20T17:31:31Z</time>
      </trkpt>
      <trkpt lat="56.86822346921" lon="14.797847315578">
        <ele>165.4</ele>
        <time>2020-03-20T17:31:32Z</time>
      </trkpt>
      <trkpt lat="56.868218691527" lon="14.798121738984">
        <ele>165.6</ele>
        <time>2020-03-20T17:31:38Z</time>
      </trkpt>
      <trkpt lat="56.868194216379" lon="14.798459361916">
        <ele>165.8</ele>
        <time>2020-03-20T17:31:45Z</time>
      </trkpt>
      <trkpt lat="56.868141913323" lon="14.798774353718">
        <ele>165.4</ele>
        <time>2020-03-20T17:31:51Z</time>
      </trkpt>
      <trkpt lat="56.868103859497" lon="14.799103678569">
        <ele>165.4</ele>
        <time>2020-03-20T17:31:57Z</time>
      </trkpt>
      <trkpt lat="56.868108720999" lon="14.799441636777">
        <ele>165.2</ele>
        <time>2020-03-20T17:32:03Z</time>
      </trkpt>
      <trkpt lat="56.868158593304" lon="14.799773392379">
        <ele>165.2</ele>
        <time>2020-03-20T17:32:09Z</time>
      </trkpt>
      <trkpt lat="56.868175860018" lon="14.799874897188">
        <ele>165.6</ele>
        <time>2020-03-20T17:32:11Z</time>
      </trkpt>
      <trkpt lat="56.868267977099" lon="14.800159378874">
        <ele>165.4</ele>
        <time>2020-03-20T17:32:17Z</time>
      </trkpt>
      <trkpt lat="56.868355735592" lon="14.800450230804">
        <ele>165</ele>
        <time>2020-03-20T17:32:23Z</time>
      </trkpt>
      <trkpt lat="56.868348862434" lon="14.80077829837">
        <ele>164.8</ele>
        <time>2020-03-20T17:32:29Z</time>
      </trkpt>
      <trkpt lat="56.86822263102" lon="14.801033024311">
        <ele>165.2</ele>
        <time>2020-03-20T17:32:35Z</time>
      </trkpt>
      <trkpt lat="56.868051724079" lon="14.801247349494">
        <ele>164.6</ele>
        <time>2020-03-20T17:32:42Z</time>
      </trkpt>
      <trkpt lat="56.867876542369" lon="14.801338879842">
        <ele>165.2</ele>
        <time>2020-03-20T17:32:48Z</time>
      </trkpt>
      <trkpt lat="56.867700019555" lon="14.801436696615">
        <ele>165.4</ele>
        <time>2020-03-20T17:32:54Z</time>
      </trkpt>
      <trkpt lat="56.86767361657" lon="14.801451951673">
        <ele>165.6</ele>
        <time>2020-03-20T17:32:55Z</time>
      </trkpt>
      <trkpt lat="56.867479827042" lon="14.801565526418">
        <ele>165.4</ele>
        <time>2020-03-20T17:33:02Z</time>
      </trkpt>
      <trkpt lat="56.867300538201" lon="14.801675748403">
        <ele>165.8</ele>
        <time>2020-03-20T17:33:09Z</time>
      </trkpt>
      <trkpt lat="56.867116052582" lon="14.80178496456">
        <ele>165.6</ele>
        <time>2020-03-20T17:33:16Z</time>
      </trkpt>
      <trkpt lat="56.866942966347" lon="14.801917147123">
        <ele>166</ele>
        <time>2020-03-20T17:33:22Z</time>
      </trkpt>
      <trkpt lat="56.866780776582" lon="14.802078247241">
        <ele>165.8</ele>
        <time>2020-03-20T17:33:28Z</time>
      </trkpt>
      <trkpt lat="56.866657478833" lon="14.802374798863">
        <ele>165.6</ele>
        <time>2020-03-20T17:33:35Z</time>
      </trkpt>
      <trkpt lat="56.866586148864" lon="14.802688617199">
        <ele>165.4</ele>
        <time>2020-03-20T17:33:41Z</time>
      </trkpt>
      <trkpt lat="56.866528146116" lon="14.803021546267">
        <ele>165</ele>
        <time>2020-03-20T17:33:48Z</time>
      </trkpt>
      <trkpt lat="56.866498558009" lon="14.803395379007">
        <ele>165.8</ele>
        <time>2020-03-20T17:33:55Z</time>
      </trkpt>
      <trkpt lat="56.866471149196" lon="14.803718417433">
        <ele>165.2</ele>
        <time>2020-03-20T17:34:02Z</time>
      </trkpt>
      <trkpt lat="56.866450110627" lon="14.804057046193">
        <ele>165.2</ele>
        <time>2020-03-20T17:34:09Z</time>
      </trkpt>
      <trkpt lat="56.866300912807" lon="14.804119742805">
        <ele>164.2</ele>
        <time>2020-03-20T17:34:14Z</time>
      </trkpt>
      <trkpt lat="56.866122629794" lon="14.80402125548">
        <ele>164.6</ele>
        <time>2020-03-20T17:34:21Z</time>
      </trkpt>
      <trkpt lat="56.86593940146" lon="14.803884127596">
        <ele>164.2</ele>
        <time>2020-03-20T17:34:27Z</time>
      </trkpt>
      <trkpt lat="56.865757598049" lon="14.803717495424">
        <ele>164.2</ele>
        <time>2020-03-20T17:34:34Z</time>
      </trkpt>
      <trkpt lat="56.865588367488" lon="14.803577182418">
        <ele>163.6</ele>
        <time>2020-03-20T17:34:40Z</time>
      </trkpt>
      <trkpt lat="56.865492227095" lon="14.803511133046">
        <ele>163.4</ele>
        <time>2020-03-20T17:34:44Z</time>
      </trkpt>
      <trkpt lat="56.865467081395" lon="14.803486741717">
        <ele>163.2</ele>
        <time>2020-03-20T17:34:45Z</time>
      </trkpt>
      <trkpt lat="56.865261641026" lon="14.803400324328">
        <ele>163.4</ele>
        <time>2020-03-20T17:34:52Z</time>
      </trkpt>
      <trkpt lat="56.865082016909" lon="14.80338339289">
        <ele>163.6</ele>
        <time>2020-03-20T17:34:57Z</time>
      </trkpt>
      <trkpt lat="56.864884623164" lon="14.803415579386">
        <ele>163.4</ele>
        <time>2020-03-20T17:35:03Z</time>
      </trkpt>
      <trkpt lat="56.864691420369" lon="14.803428319874">
        <ele>163.2</ele>
        <time>2020-03-20T17:35:10Z</time>
      </trkpt>
      <trkpt lat="56.86450525837" lon="14.803393618808">
        <ele>162.8</ele>
        <time>2020-03-20T17:35:17Z</time>
      </trkpt>
      <trkpt lat="56.864313564317" lon="14.803378447569">
        <ele>163.2</ele>
        <time>2020-03-20T17:35:24Z</time>
      </trkpt>
      <trkpt lat="56.864116422029" lon="14.803418345413">
        <ele>163.2</ele>
        <time>2020-03-20T17:35:31Z</time>
      </trkpt>
      <trkpt lat="56.863999997438" lon="14.803521526602">
        <ele>163.4</ele>
        <time>2020-03-20T17:35:35Z</time>
      </trkpt>
      <trkpt lat="56.863843758822" lon="14.803753202318">
        <ele>163.4</ele>
        <time>2020-03-20T17:35:40Z</time>
      </trkpt>
      <trkpt lat="56.863718030322" lon="14.804026787534">
        <ele>163.8</ele>
        <time>2020-03-20T17:35:45Z</time>
      </trkpt>
      <trkpt lat="56.86359163127" lon="14.804268689168">
        <ele>163.8</ele>
        <time>2020-03-20T17:35:50Z</time>
      </trkpt>
      <trkpt lat="56.863457353232" lon="14.804534311579">
        <ele>163.8</ele>
        <time>2020-03-20T17:35:56Z</time>
      </trkpt>
      <trkpt lat="56.863336737691" lon="14.804802280922">
        <ele>163.8</ele>
        <time>2020-03-20T17:36:01Z</time>
      </trkpt>
      <trkpt lat="56.863244536791" lon="14.804981569763">
        <ele>163.2</ele>
        <time>2020-03-20T17:36:05Z</time>
      </trkpt>
      <trkpt lat="56.863108330916" lon="14.805218777533">
        <ele>162.6</ele>
        <time>2020-03-20T17:36:11Z</time>
      </trkpt>
      <trkpt lat="56.862975058706" lon="14.805467049411">
        <ele>162.8</ele>
        <time>2020-03-20T17:36:17Z</time>
      </trkpt>
      <trkpt lat="56.862899118692" lon="14.805530668032">
        <ele>162.8</ele>
        <time>2020-03-20T17:36:20Z</time>
      </trkpt>
      <trkpt lat="56.862739024402" lon="14.805373842683">
        <ele>163</ele>
        <time>2020-03-20T17:36:26Z</time>
      </trkpt>
      <trkpt lat="56.86258999422" lon="14.805144178623">
        <ele>163.2</ele>
        <time>2020-03-20T17:36:33Z</time>
      </trkpt>
      <trkpt lat="56.862409280456" lon="14.804964973601">
        <ele>163.8</ele>
        <time>2020-03-20T17:36:38Z</time>
      </trkpt>
      <trkpt lat="56.862311379864" lon="14.804672193834">
        <ele>163.4</ele>
        <time>2020-03-20T17:36:45Z</time>
      </trkpt>
      <trkpt lat="56.862270224735" lon="14.804499610513">
        <ele>164.2</ele>
        <time>2020-03-20T17:36:49Z</time>
      </trkpt>
      <trkpt lat="56.862206187019" lon="14.804257708879">
        <ele>165.4</ele>
        <time>2020-03-20T17:36:55Z</time>
      </trkpt>
      <trkpt lat="56.862117590336" lon="14.804005832784">
        <ele>166.2</ele>
        <time>2020-03-20T17:37:02Z</time>
      </trkpt>
      <trkpt lat="56.862093869559" lon="14.804027961">
        <ele>166.2</ele>
        <time>2020-03-20T17:37:04Z</time>
      </trkpt>
      <trkpt lat="56.862061599244" lon="14.804084035911">
        <ele>166.4</ele>
        <time>2020-03-20T17:37:06Z</time>
      </trkpt>
      <trkpt lat="56.86198230647" lon="14.804379916981">
        <ele>166.8</ele>
        <time>2020-03-20T17:37:13Z</time>
      </trkpt>
      <trkpt lat="56.861928243215" lon="14.80459122468">
        <ele>167.4</ele>
        <time>2020-03-20T17:37:18Z</time>
      </trkpt>
      <trkpt lat="56.861853057572" lon="14.804931948915">
        <ele>168.2</ele>
        <time>2020-03-20T17:37:25Z</time>
      </trkpt>
      <trkpt lat="56.861839897989" lon="14.805075782319">
        <ele>168.6</ele>
        <time>2020-03-20T17:37:27Z</time>
      </trkpt>
      <trkpt lat="56.861793881358" lon="14.805306368388">
        <ele>169.8</ele>
        <time>2020-03-20T17:37:31Z</time>
      </trkpt>
      <trkpt lat="56.861744092872" lon="14.805517592268">
        <ele>170.8</ele>
        <time>2020-03-20T17:37:35Z</time>
      </trkpt>
      <trkpt lat="56.861625824263" lon="14.805811545501">
        <ele>171</ele>
        <time>2020-03-20T17:37:41Z</time>
      </trkpt>
      <trkpt lat="56.861487858189" lon="14.806066606718">
        <ele>171</ele>
        <time>2020-03-20T17:37:47Z</time>
      </trkpt>
      <trkpt lat="56.861358944567" lon="14.806301299918">
        <ele>171</ele>
        <time>2020-03-20T17:37:53Z</time>
      </trkpt>
      <trkpt lat="56.861209327652" lon="14.806555187669">
        <ele>170.8</ele>
        <time>2020-03-20T17:37:59Z</time>
      </trkpt>
      <trkpt lat="56.861135902208" lon="14.806700613634">
        <ele>169.8</ele>
        <time>2020-03-20T17:38:02Z</time>
      </trkpt>
      <trkpt lat="56.861028530069" lon="14.806907395107">
        <ele>168.6</ele>
        <time>2020-03-20T17:38:07Z</time>
      </trkpt>
      <trkpt lat="56.860888887615" lon="14.807177292287">
        <ele>167.6</ele>
        <time>2020-03-20T17:38:13Z</time>
      </trkpt>
      <trkpt lat="56.860866172666" lon="14.807220123796">
        <ele>167.6</ele>
        <time>2020-03-20T17:38:14Z</time>
      </trkpt>
      <trkpt lat="56.860721836348" lon="14.807477531945">
        <ele>167</ele>
        <time>2020-03-20T17:38:20Z</time>
      </trkpt>
      <trkpt lat="56.860580768971" lon="14.807695545164">
        <ele>166.8</ele>
        <time>2020-03-20T17:38:26Z</time>
      </trkpt>
      <trkpt lat="56.860531567218" lon="14.807756900672">
        <ele>166.2</ele>
        <time>2020-03-20T17:38:28Z</time>
      </trkpt>
      <trkpt lat="56.860366695245" lon="14.807975668262">
        <ele>165.8</ele>
        <time>2020-03-20T17:38:35Z</time>
      </trkpt>
      <trkpt lat="56.860232752483" lon="14.808195944594">
        <ele>166</ele>
        <time>2020-03-20T17:38:41Z</time>
      </trkpt>
      <trkpt lat="56.860130577122" lon="14.808391410502">
        <ele>165.2</ele>
        <time>2020-03-20T17:38:46Z</time>
      </trkpt>
      <trkpt lat="56.860073664021" lon="14.808510852577">
        <ele>164.6</ele>
        <time>2020-03-20T17:38:49Z</time>
      </trkpt>
      <trkpt lat="56.86002178006" lon="14.808454190933">
        <ele>164.2</ele>
        <time>2020-03-20T17:38:52Z</time>
      </trkpt>
      <trkpt lat="56.859934356843" lon="14.808283367811">
        <ele>163.4</ele>
        <time>2020-03-20T17:38:58Z</time>
      </trkpt>
      <trkpt lat="56.859924382382" lon="14.808264843812">
        <ele>163.2</ele>
        <time>2020-03-20T17:38:59Z</time>
      </trkpt>
      <trkpt lat="56.859800414081" lon="14.808016488115">
        <ele>162.6</ele>
        <time>2020-03-20T17:39:06Z</time>
      </trkpt>
      <trkpt lat="56.859670913726" lon="14.807744746917">
        <ele>162.6</ele>
        <time>2020-03-20T17:39:12Z</time>
      </trkpt>
      <trkpt lat="56.859536551869" lon="14.807461941611">
        <ele>162.2</ele>
        <time>2020-03-20T17:39:18Z</time>
      </trkpt>
      <trkpt lat="56.859520039526" lon="14.807432102047">
        <ele>162</ele>
        <time>2020-03-20T17:39:19Z</time>
      </trkpt>
      <trkpt lat="56.859397496148" lon="14.807170502948">
        <ele>162.2</ele>
        <time>2020-03-20T17:39:25Z</time>
      </trkpt>
      <trkpt lat="56.859299679375" lon="14.806864898874">
        <ele>162.2</ele>
        <time>2020-03-20T17:39:31Z</time>
      </trkpt>
      <trkpt lat="56.859328764568" lon="14.80681158999">
        <ele>161.8</ele>
        <time>2020-03-20T17:39:33Z</time>
      </trkpt>
      <trkpt lat="56.859384671841" lon="14.806793065991">
        <ele>162</ele>
        <time>2020-03-20T17:39:35Z</time>
      </trkpt>
      <trkpt lat="56.85957251022" lon="14.806765992454">
        <ele>161.6</ele>
        <time>2020-03-20T17:39:41Z</time>
      </trkpt>
      <trkpt lat="56.859763198445" lon="14.806636995013">
        <ele>161.6</ele>
        <time>2020-03-20T17:39:47Z</time>
      </trkpt>
      <trkpt lat="56.859937541965" lon="14.806464076416">
        <ele>162</ele>
        <time>2020-03-20T17:39:53Z</time>
      </trkpt>
      <trkpt lat="56.860061258809" lon="14.806205662439">
        <ele>162.4</ele>
        <time>2020-03-20T17:40:00Z</time>
      </trkpt>
      <trkpt lat="56.860146418913" lon="14.805883462203">
        <ele>162.2</ele>
        <time>2020-03-20T17:40:07Z</time>
      </trkpt>
      <trkpt lat="56.860255551251" lon="14.805597639413">
        <ele>162.2</ele>
        <time>2020-03-20T17:40:14Z</time>
      </trkpt>
      <trkpt lat="56.86027156068" lon="14.805479957537">
        <ele>162.4</ele>
        <time>2020-03-20T17:40:16Z</time>
      </trkpt>
      <trkpt lat="56.860229902637" lon="14.805159768957">
        <ele>162.2</ele>
        <time>2020-03-20T17:40:21Z</time>
      </trkpt>
      <trkpt lat="56.860185730024" lon="14.804803119112">
        <ele>161.8</ele>
        <time>2020-03-20T17:40:27Z</time>
      </trkpt>
      <trkpt lat="56.860239290365" lon="14.804474548632">
        <ele>162</ele>
        <time>2020-03-20T17:40:34Z</time>
      </trkpt>
      <trkpt lat="56.8602782662" lon="14.804114797484">
        <ele>161.6</ele>
        <time>2020-03-20T17:40:40Z</time>
      </trkpt>
      <trkpt lat="56.860395193705" lon="14.803830231979">
        <ele>162.2</ele>
        <time>2020-03-20T17:40:47Z</time>
      </trkpt>
      <trkpt lat="56.86048278456" lon="14.803482383129">
        <ele>162.2</ele>
        <time>2020-03-20T17:40:54Z</time>
      </trkpt>
      <trkpt lat="56.860634748407" lon="14.803230087939">
        <ele>162.6</ele>
        <time>2020-03-20T17:41:01Z</time>
      </trkpt>
      <trkpt lat="56.860655703157" lon="14.802861451977">
        <ele>162.4</ele>
        <time>2020-03-20T17:41:09Z</time>
      </trkpt>
      <trkpt lat="56.860680010667" lon="14.802666488983">
        <ele>162.6</ele>
        <time>2020-03-20T17:41:13Z</time>
      </trkpt>
      <trkpt lat="56.860659726469" lon="14.802314365364">
        <ele>162.2</ele>
        <time>2020-03-20T17:41:17Z</time>
      </trkpt>
      <trkpt lat="56.860677328459" lon="14.802290057854">
        <ele>162</ele>
        <time>2020-03-20T17:41:18Z</time>
      </trkpt>
      <trkpt lat="56.860851839617" lon="14.80207246373">
        <ele>161.8</ele>
        <time>2020-03-20T17:41:24Z</time>
      </trkpt>
      <trkpt lat="56.861024758214" lon="14.801863335325">
        <ele>162</ele>
        <time>2020-03-20T17:41:30Z</time>
      </trkpt>
      <trkpt lat="56.861143781194" lon="14.801570052644">
        <ele>161.8</ele>
        <time>2020-03-20T17:41:35Z</time>
      </trkpt>
      <trkpt lat="56.861234389533" lon="14.801256821041">
        <ele>161.8</ele>
        <time>2020-03-20T17:41:42Z</time>
      </trkpt>
      <trkpt lat="56.861303288751" lon="14.800894639142">
        <ele>161.8</ele>
        <time>2020-03-20T17:41:49Z</time>
      </trkpt>
      <trkpt lat="56.861393310357" lon="14.800564224644">
        <ele>162</ele>
        <time>2020-03-20T17:41:55Z</time>
      </trkpt>
      <trkpt lat="56.861446200146" lon="14.800242275865">
        <ele>162</ele>
        <time>2020-03-20T17:42:00Z</time>
      </trkpt>
      <trkpt lat="56.861498419383" lon="14.799904988209">
        <ele>161.8</ele>
        <time>2020-03-20T17:42:06Z</time>
      </trkpt>
      <trkpt lat="56.861553656104" lon="14.799577004462">
        <ele>161.8</ele>
        <time>2020-03-20T17:42:12Z</time>
      </trkpt>
      <trkpt lat="56.861604785694" lon="14.799251535285">
        <ele>161.6</ele>
        <time>2020-03-20T17:42:18Z</time>
      </trkpt>
      <trkpt lat="56.861681144803" lon="14.79890997286">
        <ele>161.2</ele>
        <time>2020-03-20T17:42:24Z</time>
      </trkpt>
      <trkpt lat="56.861834952668" lon="14.79872389468">
        <ele>161.8</ele>
        <time>2020-03-20T17:42:29Z</time>
      </trkpt>
      <trkpt lat="56.861988006162" lon="14.798543432373">
        <ele>161.8</ele>
        <time>2020-03-20T17:42:34Z</time>
      </trkpt>
      <trkpt lat="56.862112393558" lon="14.79829222683">
        <ele>161.4</ele>
        <time>2020-03-20T17:42:40Z</time>
      </trkpt>
      <trkpt lat="56.862097641414" lon="14.798164402855">
        <ele>161.4</ele>
        <time>2020-03-20T17:42:42Z</time>
      </trkpt>
      <trkpt lat="56.862029496567" lon="14.797937756279">
        <ele>161.8</ele>
        <time>2020-03-20T17:42:45Z</time>
      </trkpt>
      <trkpt lat="56.861901421135" lon="14.797674648438">
        <ele>161.4</ele>
        <time>2020-03-20T17:42:50Z</time>
      </trkpt>
      <trkpt lat="56.861753061505" lon="14.79743056751">
        <ele>161.6</ele>
        <time>2020-03-20T17:42:56Z</time>
      </trkpt>
      <trkpt lat="56.861594643595" lon="14.797215655594">
        <ele>161.6</ele>
        <time>2020-03-20T17:43:03Z</time>
      </trkpt>
      <trkpt lat="56.861456426064" lon="14.797007197741">
        <ele>161.8</ele>
        <time>2020-03-20T17:43:08Z</time>
      </trkpt>
      <trkpt lat="56.861306306235" lon="14.796822712122">
        <ele>161.8</ele>
        <time>2020-03-20T17:43:14Z</time>
      </trkpt>
      <trkpt lat="56.861125089557" lon="14.796653649199">
        <ele>162.6</ele>
        <time>2020-03-20T17:43:22Z</time>
      </trkpt>
      <trkpt lat="56.861088544473" lon="14.796582151592">
        <ele>163</ele>
        <time>2020-03-20T17:43:24Z</time>
      </trkpt>
      <trkpt lat="56.860932557314" lon="14.796305129797">
        <ele>164.2</ele>
        <time>2020-03-20T17:43:32Z</time>
      </trkpt>
      <trkpt lat="56.860867346132" lon="14.796036489902">
        <ele>165.2</ele>
        <time>2020-03-20T17:43:36Z</time>
      </trkpt>
      <trkpt lat="56.860832058333" lon="14.795795342639">
        <ele>165.6</ele>
        <time>2020-03-20T17:43:40Z</time>
      </trkpt>
      <trkpt lat="56.86087924843" lon="14.795462748847">
        <ele>166.4</ele>
        <time>2020-03-20T17:43:46Z</time>
      </trkpt>
      <trkpt lat="56.860983603085" lon="14.795126047924">
        <ele>167</ele>
        <time>2020-03-20T17:43:52Z</time>
      </trkpt>
      <trkpt lat="56.861134142009" lon="14.794879536245">
        <ele>167.2</ele>
        <time>2020-03-20T17:43:58Z</time>
      </trkpt>
      <trkpt lat="56.861277975413" lon="14.794678538283">
        <ele>167</ele>
        <time>2020-03-20T17:44:04Z</time>
      </trkpt>
      <trkpt lat="56.861441506282" lon="14.794461614711">
        <ele>166.4</ele>
        <time>2020-03-20T17:44:11Z</time>
      </trkpt>
      <trkpt lat="56.86159170993" lon="14.794223233475">
        <ele>166.4</ele>
        <time>2020-03-20T17:44:18Z</time>
      </trkpt>
      <trkpt lat="56.861725233597" lon="14.793982337669">
        <ele>166</ele>
        <time>2020-03-20T17:44:23Z</time>
      </trkpt>
      <trkpt lat="56.861846352052" lon="14.793697185431">
        <ele>166</ele>
        <time>2020-03-20T17:44:30Z</time>
      </trkpt>
      <trkpt lat="56.8619546462" lon="14.793374901376">
        <ele>165.8</ele>
        <time>2020-03-20T17:44:37Z</time>
      </trkpt>
      <trkpt lat="56.861990185456" lon="14.792991010356">
        <ele>165.6</ele>
        <time>2020-03-20T17:44:44Z</time>
      </trkpt>
      <trkpt lat="56.862043326702" lon="14.792673084889">
        <ele>165.6</ele>
        <time>2020-03-20T17:44:50Z</time>
      </trkpt>
      <trkpt lat="56.862145669701" lon="14.792475104411">
        <ele>166</ele>
        <time>2020-03-20T17:44:54Z</time>
      </trkpt>
      <trkpt lat="56.862305763991" lon="14.792298665416">
        <ele>166.4</ele>
        <time>2020-03-20T17:44:59Z</time>
      </trkpt>
      <trkpt lat="56.862465020091" lon="14.792047962787">
        <ele>166.4</ele>
        <time>2020-03-20T17:45:05Z</time>
      </trkpt>
      <trkpt lat="56.862619833784" lon="14.791808575723">
        <ele>167.4</ele>
        <time>2020-03-20T17:45:11Z</time>
      </trkpt>
      <trkpt lat="56.862724607534" lon="14.791524261675">
        <ele>167</ele>
        <time>2020-03-20T17:45:18Z</time>
      </trkpt>
      <trkpt lat="56.862871542241" lon="14.791336171839">
        <ele>166.8</ele>
        <time>2020-03-20T17:45:24Z</time>
      </trkpt>
      <trkpt lat="56.863047478322" lon="14.791132575488">
        <ele>167</ele>
        <time>2020-03-20T17:45:30Z</time>
      </trkpt>
      <trkpt lat="56.863228862638" lon="14.790944569471">
        <ele>166.6</ele>
        <time>2020-03-20T17:45:36Z</time>
      </trkpt>
      <trkpt lat="56.863426424021" lon="14.79095638795">
        <ele>166.4</ele>
        <time>2020-03-20T17:45:43Z</time>
      </trkpt>
      <trkpt lat="56.863551817245" lon="14.790957896692">
        <ele>166.2</ele>
        <time>2020-03-20T17:45:47Z</time>
      </trkpt>
      <trkpt lat="56.863684754179" lon="14.790956555588">
        <ele>166</ele>
        <time>2020-03-20T17:45:52Z</time>
      </trkpt>
      <trkpt lat="56.863729262068" lon="14.790959153977">
        <ele>165.8</ele>
        <time>2020-03-20T17:45:54Z</time>
      </trkpt>
      <trkpt lat="56.863936714093" lon="14.790935684657">
        <ele>165.2</ele>
        <time>2020-03-20T17:46:00Z</time>
      </trkpt>
      <trkpt lat="56.864116002934" lon="14.790869300009">
        <ele>165.6</ele>
        <time>2020-03-20T17:46:06Z</time>
      </trkpt>
      <trkpt lat="56.864302500209" lon="14.790780451869">
        <ele>165.6</ele>
        <time>2020-03-20T17:46:14Z</time>
      </trkpt>
      <trkpt lat="56.864481872869" lon="14.790659249595">
        <ele>166.4</ele>
        <time>2020-03-20T17:46:19Z</time>
      </trkpt>
      <trkpt lat="56.864660072063" lon="14.790524552462">
        <ele>166.4</ele>
        <time>2020-03-20T17:46:24Z</time>
      </trkpt>
      <trkpt lat="56.864777837758" lon="14.79023302998">
        <ele>165.8</ele>
        <time>2020-03-20T17:46:31Z</time>
      </trkpt>
      <trkpt lat="56.864845731148" lon="14.78989104846">
        <ele>165.6</ele>
        <time>2020-03-20T17:46:37Z</time>
      </trkpt>
      <trkpt lat="56.86497464477" lon="14.789612266466">
        <ele>165.2</ele>
        <time>2020-03-20T17:46:43Z</time>
      </trkpt>
      <trkpt lat="56.86506265472" lon="14.789255868078">
        <ele>165.2</ele>
        <time>2020-03-20T17:46:50Z</time>
      </trkpt>
      <trkpt lat="56.865127362988" lon="14.788932494376">
        <ele>164.8</ele>
        <time>2020-03-20T17:46:56Z</time>
      </trkpt>
      <trkpt lat="56.865171200325" lon="14.788650611079">
        <ele>164.6</ele>
        <time>2020-03-20T17:47:01Z</time>
      </trkpt>
      <trkpt lat="56.865240853914" lon="14.788467131288">
        <ele>164</ele>
        <time>2020-03-20T17:47:05Z</time>
      </trkpt>
      <trkpt lat="56.865315369005" lon="14.788110062348">
        <ele>163</ele>
        <time>2020-03-20T17:47:11Z</time>
      </trkpt>
      <trkpt lat="56.865378149436" lon="14.787955416293">
        <ele>162.8</ele>
        <time>2020-03-20T17:47:14Z</time>
      </trkpt>
      <trkpt lat="56.865492562371" lon="14.78768409419">
        <ele>161.8</ele>
        <time>2020-03-20T17:47:19Z</time>
      </trkpt>
      <trkpt lat="56.865515864053" lon="14.787630533849">
        <ele>161.8</ele>
        <time>2020-03-20T17:47:20Z</time>
      </trkpt>
      <trkpt lat="56.865596246474" lon="14.787292072727">
        <ele>160.6</ele>
        <time>2020-03-20T17:47:26Z</time>
      </trkpt>
      <trkpt lat="56.86563597668" lon="14.786959814211">
        <ele>160.2</ele>
        <time>2020-03-20T17:47:31Z</time>
      </trkpt>
      <trkpt lat="56.86566866609" lon="14.786576258467">
        <ele>160</ele>
        <time>2020-03-20T17:47:37Z</time>
      </trkpt>
      <trkpt lat="56.865740079878" lon="14.78624492196">
        <ele>160.2</ele>
        <time>2020-03-20T17:47:43Z</time>
      </trkpt>
      <trkpt lat="56.865756843678" lon="14.786107207343">
        <ele>160.4</ele>
        <time>2020-03-20T17:47:46Z</time>
      </trkpt>
      <trkpt lat="56.865777211695" lon="14.785864132243">
        <ele>160.4</ele>
        <time>2020-03-20T17:47:51Z</time>
      </trkpt>
      <trkpt lat="56.865860024867" lon="14.785549643355">
        <ele>160.4</ele>
        <time>2020-03-20T17:47:58Z</time>
      </trkpt>
      <trkpt lat="56.865956835812" lon="14.785224760911">
        <ele>159.6</ele>
        <time>2020-03-20T17:48:08Z</time>
      </trkpt>
      <trkpt lat="56.866123719441" lon="14.785099283868">
        <ele>159.6</ele>
        <time>2020-03-20T17:48:14Z</time>
      </trkpt>
      <trkpt lat="56.866287669405" lon="14.784900213743">
        <ele>159.2</ele>
        <time>2020-03-20T17:48:20Z</time>
      </trkpt>
      <trkpt lat="56.866439633252" lon="14.78465068458">
        <ele>159.6</ele>
        <time>2020-03-20T17:48:27Z</time>
      </trkpt>
      <trkpt lat="56.866622442491" lon="14.784536858378">
        <ele>159.4</ele>
        <time>2020-03-20T17:48:33Z</time>
      </trkpt>
      <trkpt lat="56.866845652488" lon="14.784519172569">
        <ele>159.6</ele>
        <time>2020-03-20T17:48:38Z</time>
      </trkpt>
      <trkpt lat="56.867044471156" lon="14.784515987447">
        <ele>159.4</ele>
        <time>2020-03-20T17:48:44Z</time>
      </trkpt>
      <trkpt lat="56.867234991743" lon="14.784527554469">
        <ele>159</ele>
        <time>2020-03-20T17:48:50Z</time>
      </trkpt>
      <trkpt lat="56.867354098542" lon="14.784528392659">
        <ele>158.6</ele>
        <time>2020-03-20T17:48:54Z</time>
      </trkpt>
      <trkpt lat="56.867539170894" lon="14.784552867807">
        <ele>158.6</ele>
        <time>2020-03-20T17:49:01Z</time>
      </trkpt>
      <trkpt lat="56.867722650685" lon="14.784557561671">
        <ele>158.8</ele>
        <time>2020-03-20T17:49:08Z</time>
      </trkpt>
      <trkpt lat="56.867901939526" lon="14.784580611896">
        <ele>158.6</ele>
        <time>2020-03-20T17:49:14Z</time>
      </trkpt>
      <trkpt lat="56.868085503136" lon="14.784595028764">
        <ele>158.6</ele>
        <time>2020-03-20T17:49:20Z</time>
      </trkpt>
      <trkpt lat="56.868303851631" lon="14.784552448712">
        <ele>158.6</ele>
        <time>2020-03-20T17:49:26Z</time>
      </trkpt>
      <trkpt lat="56.868496970607" lon="14.784541552242">
        <ele>158.6</ele>
        <time>2020-03-20T17:49:31Z</time>
      </trkpt>
      <trkpt lat="56.868695034904" lon="14.784556555843">
        <ele>158.2</ele>
        <time>2020-03-20T17:49:37Z</time>
      </trkpt>
      <trkpt lat="56.868876503039" lon="14.784586646864">
        <ele>158.2</ele>
        <time>2020-03-20T17:49:43Z</time>
      </trkpt>
      <trkpt lat="56.869068280911" lon="14.784617073161">
        <ele>158.6</ele>
        <time>2020-03-20T17:49:49Z</time>
      </trkpt>
      <trkpt lat="56.869248072666" lon="14.784625455061">
        <ele>158.8</ele>
        <time>2020-03-20T17:49:55Z</time>
      </trkpt>
      <trkpt lat="56.869440185814" lon="14.784651355132">
        <ele>159</ele>
        <time>2020-03-20T17:50:02Z</time>
      </trkpt>
      <trkpt lat="56.869633975342" lon="14.784663005973">
        <ele>158.6</ele>
        <time>2020-03-20T17:50:08Z</time>
      </trkpt>
      <trkpt lat="56.869728523174" lon="14.784663341249">
        <ele>159.4</ele>
        <time>2020-03-20T17:50:11Z</time>
      </trkpt>
      <trkpt lat="56.869924408177" lon="14.784686559112">
        <ele>159</ele>
        <time>2020-03-20T17:50:17Z</time>
      </trkpt>
      <trkpt lat="56.870116856601" lon="14.784699048143">
        <ele>158.4</ele>
        <time>2020-03-20T17:50:23Z</time>
      </trkpt>
      <trkpt lat="56.870301677496" lon="14.784727881879">
        <ele>158.2</ele>
        <time>2020-03-20T17:50:29Z</time>
      </trkpt>
      <trkpt lat="56.870494880291" lon="14.784743975127">
        <ele>158.2</ele>
        <time>2020-03-20T17:50:35Z</time>
      </trkpt>
      <trkpt lat="56.870615160556" lon="14.784766773895">
        <ele>157.4</ele>
        <time>2020-03-20T17:50:39Z</time>
      </trkpt>
      <trkpt lat="56.870816242337" lon="14.784799630943">
        <ele>158.6</ele>
        <time>2020-03-20T17:50:46Z</time>
      </trkpt>
      <trkpt lat="56.871010786236" lon="14.784843216823">
        <ele>158.2</ele>
        <time>2020-03-20T17:50:52Z</time>
      </trkpt>
      <trkpt lat="56.871198624615" lon="14.784832487991">
        <ele>158</ele>
        <time>2020-03-20T17:50:58Z</time>
      </trkpt>
      <trkpt lat="56.871410099952" lon="14.784851933999">
        <ele>159</ele>
        <time>2020-03-20T17:51:05Z</time>
      </trkpt>
      <trkpt lat="56.871602380738" lon="14.784874062215">
        <ele>158.8</ele>
        <time>2020-03-20T17:51:10Z</time>
      </trkpt>
      <trkpt lat="56.871811844419" lon="14.784906416349">
        <ele>158.8</ele>
        <time>2020-03-20T17:51:15Z</time>
      </trkpt>
      <trkpt lat="56.872012423286" lon="14.784916139353">
        <ele>158.6</ele>
        <time>2020-03-20T17:51:21Z</time>
      </trkpt>
      <trkpt lat="56.872099678865" lon="14.784918989199">
        <ele>158.4</ele>
        <time>2020-03-20T17:51:24Z</time>
      </trkpt>
      <trkpt lat="56.872200345484" lon="14.785249068421">
        <ele>158</ele>
        <time>2020-03-20T17:51:30Z</time>
      </trkpt>
      <trkpt lat="56.87221073904" lon="14.785577135987">
        <ele>158</ele>
        <time>2020-03-20T17:51:36Z</time>
      </trkpt>
      <trkpt lat="56.872213672705" lon="14.785749467851">
        <ele>158.2</ele>
        <time>2020-03-20T17:51:39Z</time>
      </trkpt>
      <trkpt lat="56.872249631056" lon="14.785781319071">
        <ele>158.4</ele>
        <time>2020-03-20T17:51:41Z</time>
      </trkpt>
      <trkpt lat="56.872441492747" lon="14.785631534518">
        <ele>157.8</ele>
        <time>2020-03-20T17:51:48Z</time>
      </trkpt>
      <trkpt lat="56.872617177371" lon="14.785462220138">
        <ele>157.8</ele>
        <time>2020-03-20T17:51:55Z</time>
      </trkpt>
      <trkpt lat="56.872802584999" lon="14.785335234353">
        <ele>158</ele>
        <time>2020-03-20T17:52:02Z</time>
      </trkpt>
      <trkpt lat="56.87299528488" lon="14.785333222697">
        <ele>158</ele>
        <time>2020-03-20T17:52:09Z</time>
      </trkpt>
      <trkpt lat="56.873210783529" lon="14.785319308743">
        <ele>158.8</ele>
        <time>2020-03-20T17:52:15Z</time>
      </trkpt>
      <trkpt lat="56.873408428731" lon="14.785185030705">
        <ele>158.6</ele>
        <time>2020-03-20T17:52:21Z</time>
      </trkpt>
      <trkpt lat="56.873586879382" lon="14.785110264157">
        <ele>159</ele>
        <time>2020-03-20T17:52:27Z</time>
      </trkpt>
      <trkpt lat="56.873611270711" lon="14.785140774273">
        <ele>158.8</ele>
        <time>2020-03-20T17:52:28Z</time>
      </trkpt>
      <trkpt lat="56.873686707811" lon="14.78545115603">
        <ele>157.6</ele>
        <time>2020-03-20T17:52:34Z</time>
      </trkpt>
      <trkpt lat="56.873719313402" lon="14.785736895001">
        <ele>156.2</ele>
        <time>2020-03-20T17:52:39Z</time>
      </trkpt>
      <trkpt lat="56.873770694449" lon="14.786096646149">
        <ele>155.6</ele>
        <time>2020-03-20T17:52:46Z</time>
      </trkpt>
      <trkpt lat="56.87388292809" lon="14.786403256051">
        <ele>155.4</ele>
        <time>2020-03-20T17:52:52Z</time>
      </trkpt>
      <trkpt lat="56.87390220646" lon="14.786458911867">
        <ele>155.2</ele>
        <time>2020-03-20T17:52:53Z</time>
      </trkpt>
      <trkpt lat="56.874030198073" lon="14.786763174837">
        <ele>155.6</ele>
        <time>2020-03-20T17:52:59Z</time>
      </trkpt>
      <trkpt lat="56.874114184711" lon="14.7870294678">
        <ele>156.4</ele>
        <time>2020-03-20T17:53:05Z</time>
      </trkpt>
      <trkpt lat="56.874155004564" lon="14.787175564317">
        <ele>157.4</ele>
        <time>2020-03-20T17:53:08Z</time>
      </trkpt>
      <trkpt lat="56.874231028397" lon="14.78748125221">
        <ele>158</ele>
        <time>2020-03-20T17:53:14Z</time>
      </trkpt>
      <trkpt lat="56.87430537585" lon="14.787811331432">
        <ele>158.4</ele>
        <time>2020-03-20T17:53:20Z</time>
      </trkpt>
      <trkpt lat="56.874365557892" lon="14.788162449223">
        <ele>158.4</ele>
        <time>2020-03-20T17:53:27Z</time>
      </trkpt>
      <trkpt lat="56.874395984189" lon="14.788318101106">
        <ele>158.6</ele>
        <time>2020-03-20T17:53:30Z</time>
      </trkpt>
      <trkpt lat="56.874370587032" lon="14.788473166256">
        <ele>158.6</ele>
        <time>2020-03-20T17:53:33Z</time>
      </trkpt>
      <trkpt lat="56.87416539812" lon="14.788583304422">
        <ele>159.2</ele>
        <time>2020-03-20T17:53:39Z</time>
      </trkpt>
      <trkpt lat="56.873983091795" lon="14.788616329108">
        <ele>159.4</ele>
        <time>2020-03-20T17:53:44Z</time>
      </trkpt>
      <trkpt lat="56.873789553724" lon="14.788676762607">
        <ele>159.4</ele>
        <time>2020-03-20T17:53:50Z</time>
      </trkpt>
      <trkpt lat="56.873606493028" lon="14.788794779759">
        <ele>158.6</ele>
        <time>2020-03-20T17:53:56Z</time>
      </trkpt>
      <trkpt lat="56.873439441761" lon="14.788930063625">
        <ele>158.4</ele>
        <time>2020-03-20T17:54:02Z</time>
      </trkpt>
      <trkpt lat="56.873355622761" lon="14.789260059028">
        <ele>158.6</ele>
        <time>2020-03-20T17:54:09Z</time>
      </trkpt>
      <trkpt lat="56.87340180703" lon="14.789629784637">
        <ele>158.6</ele>
        <time>2020-03-20T17:54:15Z</time>
      </trkpt>
      <trkpt lat="56.87345209843" lon="14.789971766157">
        <ele>159</ele>
        <time>2020-03-20T17:54:21Z</time>
      </trkpt>
      <trkpt lat="56.873502138373" lon="14.790305198139">
        <ele>158.4</ele>
        <time>2020-03-20T17:54:27Z</time>
      </trkpt>
      <trkpt lat="56.873545724253" lon="14.790641060872">
        <ele>159</ele>
        <time>2020-03-20T17:54:33Z</time>
      </trkpt>
      <trkpt lat="56.873589645409" lon="14.790981198374">
        <ele>159.4</ele>
        <time>2020-03-20T17:54:39Z</time>
      </trkpt>
      <trkpt lat="56.873584197174" lon="14.791308930664">
        <ele>159.6</ele>
        <time>2020-03-20T17:54:45Z</time>
      </trkpt>
      <trkpt lat="56.873627447778" lon="14.791649906356">
        <ele>160.2</ele>
        <time>2020-03-20T17:54:51Z</time>
      </trkpt>
      <trkpt lat="56.873640272085" lon="14.791864818272">
        <ele>160.8</ele>
        <time>2020-03-20T17:54:55Z</time>
      </trkpt>
      <trkpt lat="56.873694922073" lon="14.792181570273">
        <ele>161.8</ele>
        <time>2020-03-20T17:55:01Z</time>
      </trkpt>
      <trkpt lat="56.873752086631" lon="14.792532771883">
        <ele>162.2</ele>
        <time>2020-03-20T17:55:08Z</time>
      </trkpt>
      <trkpt lat="56.873797097434" lon="14.792759921373">
        <ele>162.8</ele>
        <time>2020-03-20T17:55:12Z</time>
      </trkpt>
      <trkpt lat="56.873795672511" lon="14.79306778856">
        <ele>163.6</ele>
        <time>2020-03-20T17:55:18Z</time>
      </trkpt>
      <trkpt lat="56.873766000585" lon="14.793100813246">
        <ele>164</ele>
        <time>2020-03-20T17:55:19Z</time>
      </trkpt>
      <trkpt lat="56.873589477771" lon="14.793268451246">
        <ele>164.6</ele>
        <time>2020-03-20T17:55:25Z</time>
      </trkpt>
      <trkpt lat="56.873421253038" lon="14.793444638784">
        <ele>164.4</ele>
        <time>2020-03-20T17:55:31Z</time>
      </trkpt>
      <trkpt lat="56.873248669717" lon="14.79365619794">
        <ele>164.2</ele>
        <time>2020-03-20T17:55:37Z</time>
      </trkpt>
      <trkpt lat="56.873081702269" lon="14.793873205331">
        <ele>163.8</ele>
        <time>2020-03-20T17:55:43Z</time>
      </trkpt>
      <trkpt lat="56.872998302364" lon="14.793945792585">
        <ele>163.6</ele>
        <time>2020-03-20T17:55:46Z</time>
      </trkpt>
      <trkpt lat="56.872873244416" lon="14.793652593723">
        <ele>163.8</ele>
        <time>2020-03-20T17:55:53Z</time>
      </trkpt>
      <trkpt lat="56.872745588079" lon="14.793364675458">
        <ele>163.8</ele>
        <time>2020-03-20T17:55:59Z</time>
      </trkpt>
      <trkpt lat="56.872662188174" lon="14.793117074132">
        <ele>163.8</ele>
        <time>2020-03-20T17:56:04Z</time>
      </trkpt>
      <trkpt lat="56.872804093741" lon="14.792936108911">
        <ele>163.8</ele>
        <time>2020-03-20T17:56:10Z</time>
      </trkpt>
      <trkpt lat="56.872998050907" lon="14.792823623813">
        <ele>163.6</ele>
        <time>2020-03-20T17:56:16Z</time>
      </trkpt>
      <trkpt lat="56.873188487675" lon="14.79285907925">
        <ele>163.4</ele>
        <time>2020-03-20T17:56:22Z</time>
      </trkpt>
      <trkpt lat="56.873372805656" lon="14.792938874938">
        <ele>163.4</ele>
        <time>2020-03-20T17:56:28Z</time>
      </trkpt>
      <trkpt lat="56.873561733682" lon="14.793052030588">
        <ele>163.2</ele>
        <time>2020-03-20T17:56:35Z</time>
      </trkpt>
      <trkpt lat="56.87358956159" lon="14.793083295075">
        <ele>162.8</ele>
        <time>2020-03-20T17:56:36Z</time>
      </trkpt>
      <trkpt lat="56.873647648157" lon="14.793078433573">
        <ele>162.8</ele>
        <time>2020-03-20T17:56:38Z</time>
      </trkpt>
      <trkpt lat="56.873663657586" lon="14.792972905452">
        <ele>162.8</ele>
        <time>2020-03-20T17:56:40Z</time>
      </trkpt>
      <trkpt lat="56.873613617643" lon="14.79289512142">
        <ele>163</ele>
        <time>2020-03-20T17:56:42Z</time>
      </trkpt>
      <trkpt lat="56.87343449644" lon="14.79280292052">
        <ele>163.4</ele>
        <time>2020-03-20T17:56:47Z</time>
      </trkpt>
      <trkpt lat="56.873223775474" lon="14.79274005627">
        <ele>163.6</ele>
        <time>2020-03-20T17:56:53Z</time>
      </trkpt>
      <trkpt lat="56.873127886538" lon="14.792704768471">
        <ele>163.4</ele>
        <time>2020-03-20T17:56:56Z</time>
      </trkpt>
    </trkseg>
  </trk>
</gpx>